createdAt,value
2023-01-09T00:01:01.479Z,6.80
2023-01-09T00:02:04.405Z,6.80
2023-01-09T00:03:06.170Z,6.70
2023-01-09T00:04:08.654Z,6.80
2023-01-09T00:05:12.399Z,6.80
2023-01-09T00:06:14.175Z,6.80
2023-01-09T00:07:15.968Z,6.80
2023-01-09T00:08:18.567Z,6.80
2023-01-09T00:09:22.177Z,6.70
2023-01-09T00:10:23.953Z,6.80
2023-01-09T00:11:26.025Z,6.70
2023-01-09T00:12:27.973Z,6.70
2023-01-09T00:13:29.722Z,6.70
2023-01-09T00:14:31.421Z,6.70
2023-01-09T00:15:33.144Z,6.70
2023-01-09T00:16:34.897Z,6.70
2023-01-09T00:17:36.716Z,6.70
2023-01-09T00:18:38.714Z,6.70
2023-01-09T00:19:40.545Z,6.70
2023-01-09T00:20:42.282Z,6.70
2023-01-09T00:21:43.980Z,6.70
2023-01-09T00:22:45.737Z,6.70
2023-01-09T00:23:47.449Z,6.70
2023-01-09T00:24:49.187Z,6.70
2023-01-09T00:25:50.920Z,6.70
2023-01-09T00:26:52.610Z,6.80
2023-01-09T00:27:54.341Z,6.70
2023-01-09T00:28:56.034Z,6.70
2023-01-09T00:29:57.724Z,6.70
2023-01-09T00:31:01.664Z,6.70
2023-01-09T00:32:03.426Z,6.70
2023-01-09T00:33:05.661Z,6.70
2023-01-09T00:34:10.455Z,6.70
2023-01-09T00:35:16.039Z,6.70
2023-01-09T00:36:17.829Z,6.70
2023-01-09T00:37:19.550Z,6.70
2023-01-09T00:38:21.274Z,6.70
2023-01-09T00:39:23.281Z,6.70
2023-01-09T00:40:25.082Z,6.70
2023-01-09T00:41:39.501Z,6.70
2023-01-09T00:42:41.916Z,6.70
2023-01-09T00:43:48.368Z,6.70
2023-01-09T00:44:55.622Z,6.70
2023-01-09T00:45:58.385Z,6.70
2023-01-09T00:47:07.176Z,6.70
2023-01-09T00:48:16.168Z,6.70
2023-01-09T00:49:18.577Z,6.70
2023-01-09T00:50:24.675Z,6.70
2023-01-09T00:51:27.797Z,6.70
2023-01-09T00:52:32.895Z,6.70
2023-01-09T00:53:37.205Z,6.70
2023-01-09T00:54:40.075Z,6.70
2023-01-09T00:55:42.020Z,6.70
2023-01-09T00:56:43.890Z,6.70
2023-01-09T00:57:45.926Z,6.70
2023-01-09T00:58:48.722Z,6.70
2023-01-09T00:59:51.870Z,6.60
2023-01-09T01:00:53.638Z,6.70
2023-01-09T01:01:55.589Z,6.60
2023-01-09T01:02:57.460Z,6.60
2023-01-09T01:03:59.133Z,6.60
2023-01-09T01:05:19.688Z,6.60
2023-01-09T01:06:40.256Z,6.70
2023-01-09T01:07:43.306Z,6.70
2023-01-09T01:08:46.434Z,6.70
2023-01-09T01:09:48.204Z,6.70
2023-01-09T01:10:50.042Z,6.70
2023-01-09T01:11:51.725Z,6.50
2023-01-09T01:12:53.839Z,6.70
2023-01-09T01:13:56.296Z,6.70
2023-01-09T01:14:58.180Z,6.70
2023-01-09T01:16:00.375Z,6.70
2023-01-09T01:17:02.572Z,6.60
2023-01-09T01:18:04.317Z,6.70
2023-01-09T01:19:05.995Z,6.70
2023-01-09T01:20:14.673Z,6.80
2023-01-09T01:21:16.545Z,6.70
2023-01-09T01:22:18.310Z,6.70
2023-01-09T01:23:20.065Z,6.70
2023-01-09T01:24:21.816Z,6.70
2023-01-09T01:25:23.830Z,6.70
2023-01-09T01:26:25.547Z,6.60
2023-01-09T01:27:28.693Z,6.70
2023-01-09T01:28:30.419Z,6.70
2023-01-09T01:29:32.099Z,6.60
2023-01-09T01:30:37.926Z,6.60
2023-01-09T01:31:39.743Z,6.60
2023-01-09T01:32:41.944Z,6.60
2023-01-09T01:33:43.848Z,6.60
2023-01-09T01:34:47.594Z,6.60
2023-01-09T01:35:49.570Z,6.60
2023-01-09T01:36:51.281Z,6.60
2023-01-09T01:37:53.038Z,6.60
2023-01-09T01:38:54.814Z,6.70
2023-01-09T01:39:56.545Z,6.70
2023-01-09T01:40:58.687Z,6.60
2023-01-09T01:42:00.662Z,6.60
2023-01-09T01:43:02.415Z,6.60
2023-01-09T01:44:07.788Z,6.60
2023-01-09T01:45:13.351Z,6.60
2023-01-09T01:46:17.404Z,6.60
2023-01-09T01:47:20.815Z,6.60
2023-01-09T01:48:29.262Z,6.60
2023-01-09T01:49:31.250Z,6.60
2023-01-09T01:50:47.539Z,6.60
2023-01-09T01:51:52.047Z,6.60
2023-01-09T01:53:07.080Z,6.60
2023-01-09T01:54:13.812Z,6.60
2023-01-09T01:55:17.331Z,6.60
2023-01-09T01:56:30.077Z,6.70
2023-01-09T01:57:33.851Z,6.70
2023-01-09T01:58:42.895Z,6.70
2023-01-09T01:59:50.182Z,6.70
2023-01-09T02:00:52.162Z,6.70
2023-01-09T02:01:57.771Z,6.70
2023-01-09T02:03:01.988Z,6.70
2023-01-09T02:04:04.492Z,6.60
2023-01-09T02:05:06.839Z,6.70
2023-01-09T02:06:10.136Z,6.70
2023-01-09T02:07:11.980Z,6.50
2023-01-09T02:08:14.078Z,6.70
2023-01-09T02:09:18.012Z,6.70
2023-01-09T02:10:23.490Z,6.70
2023-01-09T02:11:25.271Z,6.70
2023-01-09T02:12:28.107Z,6.70
2023-01-09T02:13:30.535Z,6.80
2023-01-09T02:14:32.734Z,6.80
2023-01-09T02:15:58.435Z,6.80
2023-01-09T02:17:12.386Z,6.80
2023-01-09T02:18:26.156Z,6.80
2023-01-09T02:19:49.142Z,6.90
2023-01-09T02:21:09.320Z,6.90
2023-01-09T02:22:34.352Z,6.90
2023-01-09T02:23:51.013Z,6.90
2023-01-09T02:25:27.343Z,7.00
2023-01-09T02:27:07.077Z,7.00
2023-01-09T02:28:27.401Z,7.00
2023-01-09T02:29:35.779Z,7.10
2023-01-09T02:31:01.185Z,7.10
2023-01-09T02:32:20.205Z,7.10
2023-01-09T02:33:42.424Z,7.00
2023-01-09T02:35:19.257Z,7.00
2023-01-09T02:36:43.124Z,7.00
2023-01-09T02:38:18.662Z,7.00
2023-01-09T02:39:42.351Z,7.00
2023-01-09T02:41:04.905Z,7.00
2023-01-09T02:42:15.972Z,6.90
2023-01-09T02:43:18.362Z,6.90
2023-01-09T02:44:29.948Z,6.90
2023-01-09T02:45:31.746Z,6.90
2023-01-09T02:46:33.418Z,6.90
2023-01-09T02:47:38.688Z,6.90
2023-01-09T02:48:41.339Z,6.90
2023-01-09T02:49:56.313Z,6.90
2023-01-09T02:51:12.770Z,6.90
2023-01-09T02:52:26.370Z,6.90
2023-01-09T02:53:27.978Z,6.90
2023-01-09T02:54:36.734Z,6.90
2023-01-09T02:55:47.791Z,6.90
2023-01-09T02:56:56.358Z,6.90
2023-01-09T02:58:26.293Z,6.90
2023-01-09T03:00:07.704Z,6.90
2023-01-09T03:01:24.634Z,7.00
2023-01-09T03:02:37.099Z,7.00
2023-01-09T03:03:44.870Z,7.00
2023-01-09T03:05:12.763Z,7.10
2023-01-09T03:06:23.803Z,7.10
2023-01-09T03:07:49.586Z,7.10
2023-01-09T03:09:06.382Z,7.10
2023-01-09T03:10:25.073Z,7.10
2023-01-09T03:11:34.742Z,7.20
2023-01-09T03:12:38.185Z,7.20
2023-01-09T03:13:42.904Z,7.20
2023-01-09T03:14:50.534Z,7.20
2023-01-09T03:15:55.509Z,7.20
2023-01-09T03:17:00.898Z,7.30
2023-01-09T03:18:05.722Z,7.20
2023-01-09T03:19:16.712Z,7.30
2023-01-09T03:20:23.937Z,7.30
2023-01-09T03:21:26.749Z,7.30
2023-01-09T03:22:28.496Z,7.20
2023-01-09T03:23:46.295Z,7.30
2023-01-09T03:24:47.980Z,7.40
2023-01-09T03:25:49.698Z,7.40
2023-01-09T03:26:54.285Z,7.40
2023-01-09T03:27:58.908Z,7.40
2023-01-09T03:29:01.037Z,7.40
2023-01-09T03:30:02.796Z,7.40
2023-01-09T03:31:04.642Z,7.40
2023-01-09T03:32:06.676Z,7.40
2023-01-09T03:33:08.517Z,7.40
2023-01-09T03:34:10.316Z,7.40
2023-01-09T03:35:12.105Z,7.40
2023-01-09T03:36:16.846Z,7.40
2023-01-09T03:37:18.560Z,7.40
2023-01-09T03:38:20.280Z,7.30
2023-01-09T03:39:22.025Z,7.40
2023-01-09T03:40:23.742Z,7.30
2023-01-09T03:41:25.633Z,7.40
2023-01-09T03:42:28.193Z,7.30
2023-01-09T03:43:30.458Z,7.30
2023-01-09T03:44:32.203Z,7.30
2023-01-09T03:45:33.961Z,7.20
2023-01-09T03:46:35.722Z,7.30
2023-01-09T03:47:37.463Z,7.30
2023-01-09T03:48:39.239Z,7.30
2023-01-09T03:49:40.930Z,7.30
2023-01-09T03:50:45.808Z,7.30
2023-01-09T03:51:47.525Z,7.30
2023-01-09T03:52:49.243Z,7.20
2023-01-09T03:53:50.945Z,7.20
2023-01-09T03:54:52.673Z,7.10
2023-01-09T03:55:56.333Z,7.10
2023-01-09T03:56:58.212Z,7.10
2023-01-09T03:57:59.996Z,7.10
2023-01-09T03:59:01.738Z,7.10
2023-01-09T04:00:04.512Z,7.00
2023-01-09T04:01:09.472Z,7.00
2023-01-09T04:02:11.469Z,7.00
2023-01-09T04:03:13.353Z,7.00
2023-01-09T04:04:15.074Z,7.00
2023-01-09T04:05:17.083Z,6.90
2023-01-09T04:06:18.803Z,6.90
2023-01-09T04:07:20.651Z,6.90
2023-01-09T04:08:22.605Z,6.90
2023-01-09T04:09:24.456Z,6.90
2023-01-09T04:10:26.200Z,6.90
2023-01-09T04:11:27.945Z,6.90
2023-01-09T04:12:29.665Z,6.90
2023-01-09T04:13:31.349Z,6.90
2023-01-09T04:14:33.081Z,6.90
2023-01-09T04:15:35.236Z,6.80
2023-01-09T04:16:36.932Z,6.80
2023-01-09T04:17:38.684Z,6.80
2023-01-09T04:18:40.389Z,6.80
2023-01-09T04:19:42.249Z,6.80
2023-01-09T04:20:47.926Z,6.80
2023-01-09T04:21:49.667Z,6.70
2023-01-09T04:22:51.345Z,6.80
2023-01-09T04:23:53.059Z,6.80
2023-01-09T04:24:54.757Z,6.80
2023-01-09T04:25:56.438Z,6.70
2023-01-09T04:26:58.355Z,6.80
2023-01-09T04:28:00.127Z,6.80
2023-01-09T04:29:01.964Z,6.80
2023-01-09T04:30:04.613Z,6.80
2023-01-09T04:31:06.372Z,6.80
2023-01-09T04:32:08.278Z,6.80
2023-01-09T04:33:10.025Z,6.80
2023-01-09T04:34:11.730Z,6.80
2023-01-09T04:35:13.578Z,6.70
2023-01-09T04:36:15.344Z,6.80
2023-01-09T04:37:17.115Z,6.70
2023-01-09T04:38:19.579Z,6.80
2023-01-09T04:39:21.890Z,6.70
2023-01-09T04:40:23.615Z,6.70
2023-01-09T04:42:04.051Z,6.80
2023-01-09T04:43:05.840Z,6.70
2023-01-09T04:44:07.593Z,6.70
2023-01-09T04:45:11.787Z,6.80
2023-01-09T04:46:13.516Z,6.80
2023-01-09T04:47:15.316Z,6.70
2023-01-09T04:48:17.455Z,6.70
2023-01-09T04:49:21.273Z,6.70
2023-01-09T04:50:22.990Z,6.70
2023-01-09T04:51:24.786Z,6.70
2023-01-09T04:52:26.787Z,6.70
2023-01-09T04:53:28.541Z,6.70
2023-01-09T04:54:30.342Z,6.70
2023-01-09T04:55:32.493Z,6.70
2023-01-09T04:56:34.475Z,6.60
2023-01-09T04:57:37.068Z,6.70
2023-01-09T04:58:38.821Z,6.60
2023-01-09T04:59:40.512Z,6.60
2023-01-09T05:00:42.252Z,6.60
2023-01-09T05:01:44.192Z,6.60
2023-01-09T05:02:46.150Z,6.50
2023-01-09T05:03:47.907Z,6.50
2023-01-09T05:04:49.663Z,6.50
2023-01-09T05:05:51.434Z,6.50
2023-01-09T05:06:53.180Z,6.40
2023-01-09T05:07:55.017Z,6.40
2023-01-09T05:08:56.818Z,6.40
2023-01-09T05:09:58.686Z,6.30
2023-01-09T05:11:00.576Z,6.30
2023-01-09T05:12:02.429Z,6.30
2023-01-09T05:13:04.335Z,6.30
2023-01-09T05:14:06.080Z,6.30
2023-01-09T05:15:09.120Z,6.30
2023-01-09T05:16:10.980Z,6.20
2023-01-09T05:17:12.731Z,6.10
2023-01-09T05:18:14.507Z,6.10
2023-01-09T05:19:16.265Z,6.10
2023-01-09T05:20:18.026Z,6.10
2023-01-09T05:21:19.801Z,6.10
2023-01-09T05:22:21.511Z,6.00
2023-01-09T05:23:23.182Z,6.00
2023-01-09T05:24:24.882Z,6.00
2023-01-09T05:25:26.603Z,6.00
2023-01-09T05:26:28.384Z,6.00
2023-01-09T05:27:30.487Z,6.00
2023-01-09T05:28:32.895Z,5.90
2023-01-09T05:29:34.899Z,5.90
2023-01-09T05:30:36.937Z,5.90
2023-01-09T05:31:38.769Z,5.90
2023-01-09T05:32:40.576Z,5.90
2023-01-09T05:33:42.330Z,5.90
2023-01-09T05:34:44.113Z,5.80
2023-01-09T05:35:45.819Z,5.80
2023-01-09T05:36:47.632Z,5.80
2023-01-09T05:37:49.332Z,5.80
2023-01-09T05:38:51.079Z,5.70
2023-01-09T05:39:52.794Z,5.70
2023-01-09T05:40:54.480Z,5.70
2023-01-09T05:41:56.201Z,5.70
2023-01-09T05:42:57.939Z,5.70
2023-01-09T05:43:59.836Z,5.60
2023-01-09T05:45:01.549Z,5.60
2023-01-09T05:46:03.375Z,5.60
2023-01-09T05:47:05.263Z,5.60
2023-01-09T05:48:07.044Z,5.60
2023-01-09T05:49:08.771Z,5.60
2023-01-09T05:50:11.635Z,5.60
2023-01-09T05:51:13.394Z,5.60
2023-01-09T05:52:15.154Z,5.50
2023-01-09T05:53:17.070Z,5.50
2023-01-09T05:54:18.795Z,5.50
2023-01-09T05:55:20.612Z,5.50
2023-01-09T05:56:22.366Z,5.40
2023-01-09T05:57:24.089Z,5.40
2023-01-09T05:58:25.984Z,5.40
2023-01-09T05:59:28.421Z,5.40
2023-01-09T06:00:30.490Z,5.30
2023-01-09T06:01:32.288Z,5.30
2023-01-09T06:02:34.245Z,5.30
2023-01-09T06:03:36.117Z,5.20
2023-01-09T06:04:37.991Z,5.10
2023-01-09T06:05:39.659Z,5.10
2023-01-09T06:06:41.581Z,5.10
2023-01-09T06:07:43.345Z,5.10
2023-01-09T06:08:45.079Z,5.00
2023-01-09T06:09:46.767Z,5.00
2023-01-09T06:10:48.533Z,5.00
2023-01-09T06:11:50.449Z,4.90
2023-01-09T06:12:54.561Z,4.90
2023-01-09T06:13:56.341Z,4.80
2023-01-09T06:14:58.123Z,4.80
2023-01-09T06:15:59.838Z,4.90
2023-01-09T06:17:01.571Z,4.70
2023-01-09T06:18:04.505Z,4.70
2023-01-09T06:19:06.434Z,4.70
2023-01-09T06:20:09.137Z,4.60
2023-01-09T06:21:10.879Z,4.60
2023-01-09T06:22:12.696Z,4.60
2023-01-09T06:23:14.437Z,4.50
2023-01-09T06:24:16.185Z,4.50
2023-01-09T06:25:18.092Z,4.40
2023-01-09T06:26:19.783Z,4.40
2023-01-09T06:27:21.474Z,4.40
2023-01-09T06:28:23.182Z,4.40
2023-01-09T06:29:24.855Z,4.30
2023-01-09T06:30:26.601Z,4.20
2023-01-09T06:31:28.345Z,4.30
2023-01-09T06:32:30.216Z,4.30
2023-01-09T06:33:32.328Z,4.20
2023-01-09T06:34:34.159Z,4.20
2023-01-09T06:35:35.843Z,4.20
2023-01-09T06:36:37.531Z,4.20
2023-01-09T06:37:39.379Z,4.20
2023-01-09T06:38:41.535Z,4.10
2023-01-09T06:39:43.534Z,4.10
2023-01-09T06:40:45.343Z,4.10
2023-01-09T06:41:48.661Z,4.10
2023-01-09T06:42:50.680Z,4.10
2023-01-09T06:43:52.510Z,4.00
2023-01-09T06:44:54.262Z,4.00
2023-01-09T06:45:56.091Z,4.00
2023-01-09T06:46:57.857Z,3.90
2023-01-09T06:47:59.530Z,3.90
2023-01-09T06:49:01.245Z,3.90
2023-01-09T06:50:03.088Z,3.90
2023-01-09T06:51:04.985Z,3.80
2023-01-09T06:52:07.752Z,3.80
2023-01-09T06:53:10.679Z,3.80
2023-01-09T06:54:12.341Z,3.70
2023-01-09T06:55:14.119Z,3.70
2023-01-09T06:56:15.817Z,3.70
2023-01-09T06:57:17.588Z,3.70
2023-01-09T06:58:19.478Z,3.70
2023-01-09T06:59:21.148Z,3.60
2023-01-09T07:00:22.941Z,3.60
2023-01-09T07:01:24.750Z,3.60
2023-01-09T07:02:26.944Z,3.60
2023-01-09T07:03:28.686Z,3.60
2023-01-09T07:04:30.414Z,3.60
2023-01-09T07:05:38.357Z,3.50
2023-01-09T07:06:40.092Z,3.50
2023-01-09T07:07:42.393Z,3.50
2023-01-09T07:08:44.108Z,3.50
2023-01-09T07:09:45.851Z,3.50
2023-01-09T07:10:47.621Z,3.50
2023-01-09T07:11:49.302Z,3.50
2023-01-09T07:12:51.062Z,3.50
2023-01-09T07:13:52.738Z,3.50
2023-01-09T07:14:56.212Z,3.50
2023-01-09T07:15:59.270Z,3.50
2023-01-09T07:17:01.106Z,3.50
2023-01-09T07:18:03.590Z,3.50
2023-01-09T07:19:05.354Z,3.50
2023-01-09T07:20:07.954Z,3.50
2023-01-09T07:21:09.704Z,3.60
2023-01-09T07:22:11.432Z,3.60
2023-01-09T07:23:13.545Z,3.60
2023-01-09T07:24:15.380Z,3.60
2023-01-09T07:25:17.186Z,3.60
2023-01-09T07:26:18.891Z,3.60
2023-01-09T07:27:21.508Z,3.70
2023-01-09T07:28:23.241Z,3.60
2023-01-09T07:29:24.976Z,3.60
2023-01-09T07:30:26.725Z,3.60
2023-01-09T07:31:28.624Z,3.60
2023-01-09T07:32:30.306Z,3.60
2023-01-09T07:33:32.037Z,3.60
2023-01-09T07:34:33.804Z,3.50
2023-01-09T07:35:35.633Z,3.50
2023-01-09T07:36:37.365Z,3.50
2023-01-09T07:37:39.161Z,3.50
2023-01-09T07:38:40.849Z,3.50
2023-01-09T07:39:42.682Z,3.50
2023-01-09T07:40:44.440Z,3.50
2023-01-09T07:41:46.485Z,3.50
2023-01-09T07:42:48.271Z,3.50
2023-01-09T07:43:49.992Z,3.50
2023-01-09T07:44:51.833Z,3.50
2023-01-09T07:45:53.641Z,3.50
2023-01-09T07:46:55.433Z,3.50
2023-01-09T07:47:57.206Z,3.50
2023-01-09T07:48:59.101Z,3.50
2023-01-09T07:50:00.852Z,3.50
2023-01-09T07:51:02.650Z,3.50
2023-01-09T07:52:05.050Z,3.60
2023-01-09T07:53:06.770Z,3.60
2023-01-09T07:54:09.468Z,3.60
2023-01-09T07:55:11.375Z,3.70
2023-01-09T07:56:13.125Z,3.70
2023-01-09T07:57:15.051Z,3.80
2023-01-09T07:58:16.786Z,3.80
2023-01-09T07:59:18.438Z,3.90
2023-01-09T08:00:21.185Z,3.90
2023-01-09T08:01:23.095Z,3.90
2023-01-09T08:02:25.456Z,4.00
2023-01-09T08:03:27.282Z,4.00
2023-01-09T08:04:28.956Z,4.10
2023-01-09T08:05:30.696Z,4.10
2023-01-09T08:06:33.011Z,4.10
2023-01-09T08:07:35.122Z,4.20
2023-01-09T08:08:36.848Z,4.20
2023-01-09T08:09:38.856Z,4.30
2023-01-09T08:10:41.295Z,4.30
2023-01-09T08:11:43.157Z,4.40
2023-01-09T08:12:45.432Z,4.40
2023-01-09T08:13:47.128Z,4.40
2023-01-09T08:14:48.855Z,4.60
2023-01-09T08:15:50.604Z,4.60
2023-01-09T08:16:52.307Z,4.60
2023-01-09T08:17:53.961Z,4.70
2023-01-09T08:18:56.121Z,4.70
2023-01-09T08:19:57.843Z,4.70
2023-01-09T08:20:59.666Z,4.80
2023-01-09T08:22:01.321Z,4.80
2023-01-09T08:23:03.049Z,4.80
2023-01-09T08:24:05.328Z,4.80
2023-01-09T08:25:07.691Z,4.80
2023-01-09T08:26:09.454Z,4.80
2023-01-09T08:27:11.179Z,4.90
2023-01-09T08:28:13.002Z,4.90
2023-01-09T08:29:14.933Z,4.90
2023-01-09T08:30:17.392Z,4.90
2023-01-09T08:31:19.108Z,4.90
2023-01-09T08:32:20.814Z,4.90
2023-01-09T08:33:22.642Z,4.90
2023-01-09T08:34:24.470Z,4.90
2023-01-09T08:35:26.209Z,5.00
2023-01-09T08:36:27.992Z,4.90
2023-01-09T08:37:29.682Z,4.90
2023-01-09T08:38:31.436Z,4.90
2023-01-09T08:39:33.310Z,4.90
2023-01-09T08:40:35.002Z,4.90
2023-01-09T08:41:54.981Z,4.90
2023-01-09T08:43:15.365Z,5.00
2023-01-09T08:44:35.851Z,5.10
2023-01-09T08:45:56.443Z,5.10
2023-01-09T08:47:07.304Z,5.10
2023-01-09T08:48:09.047Z,5.10
2023-01-09T08:49:10.706Z,5.20
2023-01-09T08:50:13.268Z,5.10
2023-01-09T08:51:15.317Z,5.10
2023-01-09T08:52:16.984Z,5.10
2023-01-09T08:53:18.644Z,5.10
2023-01-09T08:54:20.417Z,5.10
2023-01-09T08:55:22.168Z,5.10
2023-01-09T08:56:23.957Z,5.10
2023-01-09T08:57:26.260Z,5.10
2023-01-09T08:58:28.003Z,5.10
2023-01-09T08:59:29.686Z,5.10
2023-01-09T09:00:31.503Z,5.10
2023-01-09T09:01:33.235Z,5.10
2023-01-09T09:02:34.948Z,5.10
2023-01-09T09:03:36.676Z,5.10
2023-01-09T09:04:38.344Z,5.10
2023-01-09T09:05:40.132Z,5.20
2023-01-09T09:06:42.027Z,5.20
2023-01-09T09:07:43.881Z,5.20
2023-01-09T09:08:45.601Z,5.30
2023-01-09T09:09:47.376Z,5.30
2023-01-09T09:10:49.062Z,5.30
2023-01-09T09:11:50.806Z,5.40
2023-01-09T09:12:54.488Z,5.30
2023-01-09T09:13:56.945Z,5.40
2023-01-09T09:15:13.824Z,5.30
2023-01-09T09:16:15.710Z,5.30
2023-01-09T09:17:17.500Z,5.30
2023-01-09T09:18:19.244Z,5.30
2023-01-09T09:19:21.047Z,5.30
2023-01-09T09:20:25.201Z,5.40
2023-01-09T09:21:26.877Z,5.40
2023-01-09T09:22:28.596Z,5.40
2023-01-09T09:23:30.288Z,5.50
2023-01-09T09:24:32.035Z,5.50
2023-01-09T09:25:33.830Z,5.70
2023-01-09T09:26:35.559Z,5.70
2023-01-09T09:27:37.809Z,5.70
2023-01-09T09:28:39.506Z,5.80
2023-01-09T09:29:41.207Z,5.80
2023-01-09T09:30:42.964Z,5.80
2023-01-09T09:31:44.899Z,5.90
2023-01-09T09:32:47.191Z,5.90
2023-01-09T09:33:48.938Z,5.90
2023-01-09T09:34:50.698Z,5.90
2023-01-09T09:35:52.372Z,6.00
2023-01-09T09:36:54.142Z,6.00
2023-01-09T09:38:02.643Z,6.10
2023-01-09T09:39:07.535Z,6.20
2023-01-09T09:40:20.388Z,6.20
2023-01-09T09:42:02.178Z,6.30
2023-01-09T09:43:59.824Z,6.30
2023-01-09T09:45:25.521Z,6.30
2023-01-09T09:46:40.235Z,6.30
2023-01-09T09:47:50.860Z,6.30
2023-01-09T09:48:54.821Z,6.30
2023-01-09T09:50:30.465Z,6.30
2023-01-09T09:51:47.483Z,6.30
2023-01-09T09:53:09.437Z,6.40
2023-01-09T09:54:15.895Z,6.40
2023-01-09T09:55:33.072Z,6.40
2023-01-09T09:56:51.316Z,6.40
2023-01-09T09:57:54.266Z,6.40
2023-01-09T09:59:08.699Z,6.50
2023-01-09T10:00:20.377Z,6.50
2023-01-09T10:01:37.147Z,6.60
2023-01-09T10:02:45.208Z,6.60
2023-01-09T10:03:53.792Z,6.70
2023-01-09T10:05:02.113Z,6.70
2023-01-09T10:06:10.960Z,6.80
2023-01-09T10:07:27.299Z,6.90
2023-01-09T10:09:04.063Z,7.00
2023-01-09T10:10:16.777Z,7.00
2023-01-09T10:12:01.712Z,7.10
2023-01-09T10:13:24.342Z,7.20
2023-01-09T10:14:26.341Z,7.20
2023-01-09T10:15:43.685Z,7.20
2023-01-09T10:16:48.211Z,7.30
2023-01-09T10:18:21.051Z,7.30
2023-01-09T10:19:53.758Z,7.30
2023-01-09T10:20:57.686Z,7.30
2023-01-09T10:22:02.499Z,7.40
2023-01-09T10:23:37.650Z,7.40
2023-01-09T10:25:06.874Z,7.40
2023-01-09T10:26:17.460Z,7.40
2023-01-09T10:27:33.964Z,7.40
2023-01-09T10:28:49.829Z,7.40
2023-01-09T10:30:21.317Z,7.40
2023-01-09T10:31:43.947Z,7.50
2023-01-09T10:33:24.986Z,7.40
2023-01-09T10:34:32.710Z,7.50
2023-01-09T10:35:51.540Z,7.50
2023-01-09T10:36:59.204Z,7.50
2023-01-09T10:38:03.330Z,7.60
2023-01-09T10:39:10.064Z,7.60
2023-01-09T10:40:46.901Z,7.60
2023-01-09T10:41:51.473Z,7.60
2023-01-09T10:43:14.711Z,7.60
2023-01-09T10:44:37.699Z,7.60
2023-01-09T10:45:53.951Z,7.60
2023-01-09T10:46:57.620Z,7.60
2023-01-09T10:48:20.802Z,7.60
2023-01-09T10:49:23.893Z,7.60
2023-01-09T10:50:31.116Z,7.60
2023-01-09T10:51:49.278Z,7.60
2023-01-09T10:52:53.669Z,7.60
2023-01-09T10:53:56.675Z,7.60
2023-01-09T10:55:05.011Z,7.60
2023-01-09T10:56:18.980Z,7.60
2023-01-09T10:57:56.035Z,7.60
2023-01-09T10:58:57.950Z,7.60
2023-01-09T10:59:59.753Z,7.70
2023-01-09T11:01:03.134Z,7.70
2023-01-09T11:02:04.995Z,7.70
2023-01-09T11:03:14.978Z,7.70
2023-01-09T11:04:30.794Z,7.70
2023-01-09T11:05:32.990Z,7.70
2023-01-09T11:06:46.258Z,7.70
2023-01-09T11:08:13.978Z,7.70
2023-01-09T11:09:16.901Z,7.70
2023-01-09T11:10:19.454Z,7.70
2023-01-09T11:11:40.681Z,7.70
2023-01-09T11:12:43.011Z,7.70
2023-01-09T11:13:48.577Z,7.70
2023-01-09T11:14:50.273Z,7.70
2023-01-09T11:16:10.244Z,7.70
2023-01-09T11:17:22.652Z,7.70
2023-01-09T11:18:25.693Z,7.70
2023-01-09T11:19:28.100Z,7.70
2023-01-09T11:20:30.386Z,7.70
2023-01-09T11:21:35.716Z,7.70
2023-01-09T11:22:47.462Z,7.60
2023-01-09T11:23:50.154Z,7.70
2023-01-09T11:25:02.879Z,7.80
2023-01-09T11:26:04.927Z,7.80
2023-01-09T11:27:12.768Z,7.80
2023-01-09T11:28:14.444Z,7.80
2023-01-09T11:29:19.122Z,7.90
2023-01-09T11:30:29.450Z,7.90
2023-01-09T11:31:31.467Z,7.90
2023-01-09T11:32:34.293Z,7.90
2023-01-09T11:33:47.130Z,7.90
2023-01-09T11:34:49.170Z,7.90
2023-01-09T11:36:11.067Z,7.90
2023-01-09T11:37:18.759Z,7.90
2023-01-09T11:38:20.477Z,8.00
2023-01-09T11:39:27.785Z,7.90
2023-01-09T11:40:35.663Z,8.00
2023-01-09T11:41:37.499Z,8.00
2023-01-09T11:42:51.463Z,8.00
2023-01-09T11:43:56.395Z,8.00
2023-01-09T11:44:58.983Z,8.00
2023-01-09T11:46:04.194Z,8.00
2023-01-09T11:47:26.748Z,8.00
2023-01-09T11:48:31.335Z,8.00
2023-01-09T11:49:33.076Z,8.00
2023-01-09T11:50:34.815Z,8.00
2023-01-09T11:51:36.994Z,8.10
2023-01-09T11:52:38.876Z,8.10
2023-01-09T11:54:14.178Z,8.20
2023-01-09T11:55:19.483Z,8.10
2023-01-09T11:56:21.213Z,8.10
2023-01-09T11:57:24.424Z,8.10
2023-01-09T11:58:34.963Z,8.20
2023-01-09T11:59:36.729Z,8.10
2023-01-09T12:01:00.189Z,8.10
2023-01-09T12:02:04.732Z,8.10
2023-01-09T12:03:44.673Z,8.20
2023-01-09T12:05:01.218Z,8.20
2023-01-09T12:06:22.440Z,8.20
2023-01-09T12:07:54.666Z,8.20
2023-01-09T12:09:01.797Z,8.20
2023-01-09T12:10:10.777Z,8.20
2023-01-09T12:11:24.433Z,8.20
2023-01-09T12:12:51.218Z,8.20
2023-01-09T12:14:07.076Z,8.20
2023-01-09T12:15:32.209Z,8.20
2023-01-09T12:16:53.212Z,8.20
2023-01-09T12:18:03.606Z,8.20
2023-01-09T12:19:14.249Z,8.10
2023-01-09T12:20:27.669Z,8.20
2023-01-09T12:21:43.515Z,8.30
2023-01-09T12:23:12.672Z,8.30
2023-01-09T12:24:28.217Z,8.30
2023-01-09T12:25:42.143Z,8.50
2023-01-09T12:27:20.677Z,8.40
2023-01-09T12:28:39.633Z,8.40
2023-01-09T12:30:00.155Z,8.50
2023-01-09T12:31:10.740Z,8.40
2023-01-09T12:32:37.309Z,8.50
2023-01-09T12:34:06.637Z,8.50
2023-01-09T12:35:39.288Z,8.50
2023-01-09T12:36:54.226Z,8.60
2023-01-09T12:38:10.780Z,8.60
2023-01-09T12:39:32.456Z,8.60
2023-01-09T12:40:49.345Z,8.60
2023-01-09T12:42:14.290Z,8.60
2023-01-09T12:43:22.073Z,8.70
2023-01-09T12:44:44.929Z,8.60
2023-01-09T12:46:15.340Z,8.60
2023-01-09T12:47:37.740Z,8.60
2023-01-09T12:48:53.478Z,8.60
2023-01-09T12:50:16.347Z,8.70
2023-01-09T12:52:01.413Z,8.70
2023-01-09T12:53:27.169Z,8.70
2023-01-09T12:54:52.277Z,8.70
2023-01-09T12:56:04.989Z,8.80
2023-01-09T12:57:25.081Z,8.80
2023-01-09T12:58:39.362Z,8.70
2023-01-09T12:59:48.771Z,8.70
2023-01-09T13:00:52.867Z,8.70
2023-01-09T13:01:59.497Z,8.70
2023-01-09T13:03:21.575Z,8.70
2023-01-09T13:04:34.807Z,8.70
2023-01-09T13:05:49.221Z,8.70
2023-01-09T13:06:56.658Z,8.70
2023-01-09T13:08:19.976Z,8.60
2023-01-09T13:09:46.971Z,8.50
2023-01-09T13:10:53.329Z,8.60
2023-01-09T13:12:04.662Z,8.60
2023-01-09T13:13:18.443Z,8.50
2023-01-09T13:14:52.240Z,8.60
2023-01-09T13:16:01.820Z,8.60
2023-01-09T13:17:06.942Z,8.60
2023-01-09T13:18:35.965Z,8.60
2023-01-09T13:19:42.260Z,8.50
2023-01-09T13:20:53.225Z,8.50
2023-01-09T13:21:58.143Z,8.50
2023-01-09T13:23:01.778Z,8.50
2023-01-09T13:24:22.592Z,8.50
2023-01-09T13:25:35.904Z,8.50
2023-01-09T13:26:58.634Z,8.50
2023-01-09T13:28:12.421Z,8.50
2023-01-09T13:29:43.594Z,8.40
2023-01-09T13:30:54.004Z,8.40
2023-01-09T13:32:30.875Z,8.40
2023-01-09T13:33:39.504Z,8.30
2023-01-09T13:34:45.055Z,8.30
2023-01-09T13:35:55.610Z,8.20
2023-01-09T13:36:58.680Z,8.20
2023-01-09T13:38:01.308Z,8.10
2023-01-09T13:39:03.666Z,8.10
2023-01-09T13:40:29.816Z,8.00
2023-01-09T13:41:50.940Z,8.00
2023-01-09T13:43:05.226Z,7.90
2023-01-09T13:44:28.865Z,7.90
2023-01-09T13:45:34.120Z,7.90
2023-01-09T13:46:41.193Z,7.90
2023-01-09T13:47:43.516Z,7.90
2023-01-09T13:48:45.284Z,7.90
2023-01-09T13:49:46.953Z,7.90
2023-01-09T13:50:50.954Z,7.90
2023-01-09T13:51:57.125Z,7.90
2023-01-09T13:53:27.751Z,7.90
2023-01-09T13:54:51.559Z,7.90
2023-01-09T13:55:59.280Z,7.90
2023-01-09T13:57:28.576Z,7.90
2023-01-09T13:58:51.363Z,8.00
2023-01-09T13:59:53.206Z,8.00
2023-01-09T14:00:58.564Z,8.00
2023-01-09T14:02:00.492Z,8.00
2023-01-09T14:03:08.368Z,8.00
2023-01-09T14:04:14.901Z,8.00
2023-01-09T14:05:37.849Z,8.00
2023-01-09T14:06:40.064Z,8.00
2023-01-09T14:07:49.143Z,8.00
2023-01-09T14:09:23.890Z,8.00
2023-01-09T14:10:35.356Z,8.00
2023-01-09T14:11:37.476Z,8.00
2023-01-09T14:12:41.061Z,8.00
2023-01-09T14:13:46.689Z,7.90
2023-01-09T14:14:50.323Z,7.90
2023-01-09T14:16:01.315Z,7.90
2023-01-09T14:17:24.213Z,7.80
2023-01-09T14:18:33.078Z,7.80
2023-01-09T14:19:39.517Z,7.80
2023-01-09T14:22:25.995Z,7.80
2023-01-09T14:23:50.839Z,7.80
2023-01-09T14:24:56.549Z,7.70
2023-01-09T14:25:59.375Z,7.70
2023-01-09T14:27:01.907Z,7.70
2023-01-09T14:28:11.605Z,7.60
2023-01-09T14:29:31.438Z,7.60
2023-01-09T14:30:34.586Z,7.60
2023-01-09T14:31:36.411Z,7.60
2023-01-09T14:32:43.105Z,7.60
2023-01-09T14:33:47.723Z,7.60
2023-01-09T14:35:03.079Z,7.60
2023-01-09T14:36:16.743Z,7.50
2023-01-09T14:37:18.907Z,7.50
2023-01-09T14:38:28.823Z,7.50
2023-01-09T14:39:32.340Z,7.50
2023-01-09T14:40:35.848Z,7.50
2023-01-09T14:42:06.362Z,7.40
2023-01-09T14:43:33.528Z,7.40
2023-01-09T14:45:06.244Z,7.30
2023-01-09T14:46:16.265Z,7.30
2023-01-09T14:47:24.484Z,7.20
2023-01-09T14:48:26.924Z,7.20
2023-01-09T14:49:34.147Z,7.20
2023-01-09T14:50:50.695Z,7.20
2023-01-09T14:51:53.895Z,7.20
2023-01-09T14:53:11.155Z,7.10
2023-01-09T14:54:31.799Z,7.10
2023-01-09T14:55:42.528Z,7.00